Aeroporto :
LOGIN :

Iscrizione | Disclaimer

   EN    FR    IT 

 










Sommario :    VFR   VFR Marginale   IFR   IFR Intensivo   IFR Molto Intensivo
Visibilità : 
Base nubi : 
>= 8 km
>= 3000ft
5 / 8 km
1000 / 3000 ft
1500m / 5 km
500 / 1000 ft
800 / 1500m
200 / 500 ft
< 800m
< 200 ft
Simboli :   Temporali  Nebbia  Neve Forte  Precipitazioni Forti  Vento > 20 kt
SIGMETs :   Varie  Temporali  Ghiacco  Turbolenza  Onda orograficha  Ceneri Vulcaniche







- Altitudine del aeroporto : 348 ft
- Codice IATA : STN
- Carte del aeroporto


EGSS - London Stansted

ULTIMO METAR :
  • 230950Z AUTO 10008KT 060V140 9999 NCD 16/08 Q0998

METARs OBSOLETI :
  • 230920Z AUTO 09011KT 010V110 9999 NCD 15/08 Q0998
  • 230850Z AUTO 09011G21KT 9999 NCD 14/07 Q0998
  • 230820Z AUTO 09012KT 050V110 9999 NCD 13/07 Q0998
  • 230750Z AUTO 09010KT 030V100 9999 NCD 13/07 Q0998
  • 230720Z AUTO 08011KT 9999 NCD 12/07 Q0998

TAF TAF EGSS
Valido dal 23 a 06 ore il 24 a 12 ore UTC


230500Z 2306/2412 08008KT CAVOK
PROB30 2306/2307 8000
PROB40 2400/2408 8000
BECMG 2409/2412 16012KT
PROB30
TEMPO 2411/2412 6000 SHRA BKN013 BKN025CB
ATIS : +44 1279 669 325
Nessun NOTAM noto per questo aeroporto.



MetMap, La meteo Aeronautica in un colpo d'occhio ! - Copyright ORBIFLY Dicembre 2007 - Disclaimer

ORBIFLY MET'MAP TEAM :

Programmazione e sviluppo : Alexandra Zaïnal
Concezione e sviluppo : Baudouin d'Aumeries
Co-Programmazione e sviluppo : Marc-Olivier Méhu
Supporto tecnico e logistico : Manuel Goepfert
Aiuto per la traduzione : Arnaldo La Scala

Contatto : metmap@orbifly.com




FONTI E CREDITI :

   NOAA